sensor_id;sensor_type;location;lat;lon;timestamp;temperature;humidity
76305;DHT22;65111;50.536;19.204;2023-02-18T00:02:04;8.70;95.30
76305;DHT22;65111;50.536;19.204;2023-02-18T00:04:30;8.70;95.30
76305;DHT22;65111;50.536;19.204;2023-02-18T00:06:56;8.70;95.40
76305;DHT22;65111;50.536;19.204;2023-02-18T00:09:22;8.70;95.50
76305;DHT22;65111;50.536;19.204;2023-02-18T00:11:48;8.80;95.50
76305;DHT22;65111;50.536;19.204;2023-02-18T00:14:15;8.70;95.50
76305;DHT22;65111;50.536;19.204;2023-02-18T00:16:43;8.70;95.20
76305;DHT22;65111;50.536;19.204;2023-02-18T00:19:14;8.60;95.30
76305;DHT22;65111;50.536;19.204;2023-02-18T00:21:41;8.70;95.00
76305;DHT22;65111;50.536;19.204;2023-02-18T00:24:08;8.60;94.70
76305;DHT22;65111;50.536;19.204;2023-02-18T00:26:35;8.60;94.70
76305;DHT22;65111;50.536;19.204;2023-02-18T00:29:01;8.50;94.40
76305;DHT22;65111;50.536;19.204;2023-02-18T00:31:30;8.50;94.10
76305;DHT22;65111;50.536;19.204;2023-02-18T00:33:57;8.50;93.40
76305;DHT22;65111;50.536;19.204;2023-02-18T00:36:24;8.40;93.20
76305;DHT22;65111;50.536;19.204;2023-02-18T00:38:54;8.40;92.90
76305;DHT22;65111;50.536;19.204;2023-02-18T00:41:22;8.20;92.80
76305;DHT22;65111;50.536;19.204;2023-02-18T00:43:49;8.10;92.40
76305;DHT22;65111;50.536;19.204;2023-02-18T00:46:15;8.10;92.20
76305;DHT22;65111;50.536;19.204;2023-02-18T00:48:41;8.00;92.20
76305;DHT22;65111;50.536;19.204;2023-02-18T00:51:08;7.90;92.20
76305;DHT22;65111;50.536;19.204;2023-02-18T00:53:34;7.90;91.70
76305;DHT22;65111;50.536;19.204;2023-02-18T00:56:00;7.80;91.40
76305;DHT22;65111;50.536;19.204;2023-02-18T00:58:27;7.70;91.30
76305;DHT22;65111;50.536;19.204;2023-02-18T01:00:53;7.70;91.30
76305;DHT22;65111;50.536;19.204;2023-02-18T01:03:19;7.40;91.40
76305;DHT22;65111;50.536;19.204;2023-02-18T01:05:47;7.40;91.30
76305;DHT22;65111;50.536;19.204;2023-02-18T01:08:16;7.30;90.90
76305;DHT22;65111;50.536;19.204;2023-02-18T01:10:44;7.20;90.70
76305;DHT22;65111;50.536;19.204;2023-02-18T01:13:12;7.10;90.20
76305;DHT22;65111;50.536;19.204;2023-02-18T01:15:39;6.80;89.70
76305;DHT22;65111;50.536;19.204;2023-02-18T01:18:07;6.70;89.60
76305;DHT22;65111;50.536;19.204;2023-02-18T01:20:34;6.80;89.30
76305;DHT22;65111;50.536;19.204;2023-02-18T01:23:01;6.60;89.40
76305;DHT22;65111;50.536;19.204;2023-02-18T01:25:27;6.60;89.60
76305;DHT22;65111;50.536;19.204;2023-02-18T01:27:53;6.40;89.70
76305;DHT22;65111;50.536;19.204;2023-02-18T01:30:19;6.30;89.60
76305;DHT22;65111;50.536;19.204;2023-02-18T01:32:46;6.30;89.40
76305;DHT22;65111;50.536;19.204;2023-02-18T01:35:15;6.30;89.10
76305;DHT22;65111;50.536;19.204;2023-02-18T01:37:41;6.20;88.30
76305;DHT22;65111;50.536;19.204;2023-02-18T01:40:10;6.20;87.80
76305;DHT22;65111;50.536;19.204;2023-02-18T01:42:36;6.20;87.40
76305;DHT22;65111;50.536;19.204;2023-02-18T01:48:12;6.10;87.70
76305;DHT22;65111;50.536;19.204;2023-02-18T01:50:46;6.00;88.10
76305;DHT22;65111;50.536;19.204;2023-02-18T01:53:17;5.90;88.50
76305;DHT22;65111;50.536;19.204;2023-02-18T01:55:45;5.90;88.80
76305;DHT22;65111;50.536;19.204;2023-02-18T01:58:12;5.90;89.10
76305;DHT22;65111;50.536;19.204;2023-02-18T02:00:39;5.70;89.40
76305;DHT22;65111;50.536;19.204;2023-02-18T02:03:05;5.70;89.70
76305;DHT22;65111;50.536;19.204;2023-02-18T02:05:32;5.90;90.00
76305;DHT22;65111;50.536;19.204;2023-02-18T02:08:00;5.50;89.80
76305;DHT22;65111;50.536;19.204;2023-02-18T02:10:57;5.60;89.60
76305;DHT22;65111;50.536;19.204;2023-02-18T02:13:28;5.50;89.30
76305;DHT22;65111;50.536;19.204;2023-02-18T02:24:39;5.50;88.50
76305;DHT22;65111;50.536;19.204;2023-02-18T02:27:14;5.60;87.20
76305;DHT22;65111;50.536;19.204;2023-02-18T02:35:41;5.60;85.10
76305;DHT22;65111;50.536;19.204;2023-02-18T02:46:22;5.40;85.20
76305;DHT22;65111;50.536;19.204;2023-02-18T02:48:59;5.40;85.20
76305;DHT22;65111;50.536;19.204;2023-02-18T02:54:23;5.20;85.30
76305;DHT22;65111;50.536;19.204;2023-02-18T02:56:49;5.30;84.90
76305;DHT22;65111;50.536;19.204;2023-02-18T02:59:20;5.10;84.70
76305;DHT22;65111;50.536;19.204;2023-02-18T03:13:50;5.10;82.50
76305;DHT22;65111;50.536;19.204;2023-02-18T03:19:01;5.00;82.40
76305;DHT22;65111;50.536;19.204;2023-02-18T03:24:08;4.90;82.80
76305;DHT22;65111;50.536;19.204;2023-02-18T03:26:39;5.00;83.00
76305;DHT22;65111;50.536;19.204;2023-02-18T03:29:08;4.80;83.20
76305;DHT22;65111;50.536;19.204;2023-02-18T03:31:36;4.90;83.30
76305;DHT22;65111;50.536;19.204;2023-02-18T03:34:08;4.90;83.70
76305;DHT22;65111;50.536;19.204;2023-02-18T03:36:36;4.80;83.80
76305;DHT22;65111;50.536;19.204;2023-02-18T03:39:08;4.80;84.00
76305;DHT22;65111;50.536;19.204;2023-02-18T03:41:36;4.80;84.00
76305;DHT22;65111;50.536;19.204;2023-02-18T03:44:04;4.80;84.00
76305;DHT22;65111;50.536;19.204;2023-02-18T03:46:32;4.60;83.70
76305;DHT22;65111;50.536;19.204;2023-02-18T03:48:59;4.70;83.20
76305;DHT22;65111;50.536;19.204;2023-02-18T03:51:25;4.80;83.00
76305;DHT22;65111;50.536;19.204;2023-02-18T03:53:51;4.60;83.00
76305;DHT22;65111;50.536;19.204;2023-02-18T03:56:17;4.60;82.80
76305;DHT22;65111;50.536;19.204;2023-02-18T03:58:43;4.60;82.20
76305;DHT22;65111;50.536;19.204;2023-02-18T04:01:09;4.80;81.60
76305;DHT22;65111;50.536;19.204;2023-02-18T04:03:36;4.80;81.10
76305;DHT22;65111;50.536;19.204;2023-02-18T04:06:02;4.70;80.30
76305;DHT22;65111;50.536;19.204;2023-02-18T04:08:28;4.50;79.70
76305;DHT22;65111;50.536;19.204;2023-02-18T04:10:54;4.80;79.20
76305;DHT22;65111;50.536;19.204;2023-02-18T04:13:20;4.70;78.90
76305;DHT22;65111;50.536;19.204;2023-02-18T04:15:48;4.70;78.10
76305;DHT22;65111;50.536;19.204;2023-02-18T04:18:14;4.60;77.40
76305;DHT22;65111;50.536;19.204;2023-02-18T04:20:40;4.70;77.30
76305;DHT22;65111;50.536;19.204;2023-02-18T04:23:06;4.50;77.40
76305;DHT22;65111;50.536;19.204;2023-02-18T04:25:33;4.60;76.90
76305;DHT22;65111;50.536;19.204;2023-02-18T04:27:59;4.30;77.10
76305;DHT22;65111;50.536;19.204;2023-02-18T04:30:25;4.40;77.20
76305;DHT22;65111;50.536;19.204;2023-02-18T04:32:52;4.20;77.20
76305;DHT22;65111;50.536;19.204;2023-02-18T04:35:18;4.30;77.60
76305;DHT22;65111;50.536;19.204;2023-02-18T04:37:44;4.10;77.90
76305;DHT22;65111;50.536;19.204;2023-02-18T04:40:10;4.10;78.20
76305;DHT22;65111;50.536;19.204;2023-02-18T04:42:36;4.00;77.90
76305;DHT22;65111;50.536;19.204;2023-02-18T04:45:03;4.10;77.80
76305;DHT22;65111;50.536;19.204;2023-02-18T04:47:29;3.90;77.80
76305;DHT22;65111;50.536;19.204;2023-02-18T04:49:55;4.00;77.80
76305;DHT22;65111;50.536;19.204;2023-02-18T04:52:21;4.20;77.60
76305;DHT22;65111;50.536;19.204;2023-02-18T04:54:47;3.90;77.30
76305;DHT22;65111;50.536;19.204;2023-02-18T04:57:13;3.70;77.40
76305;DHT22;65111;50.536;19.204;2023-02-18T04:59:39;4.00;77.50
76305;DHT22;65111;50.536;19.204;2023-02-18T05:02:06;4.00;77.60
76305;DHT22;65111;50.536;19.204;2023-02-18T05:04:32;4.00;77.70
76305;DHT22;65111;50.536;19.204;2023-02-18T05:06:58;4.10;78.00
76305;DHT22;65111;50.536;19.204;2023-02-18T05:09:24;3.90;77.80
76305;DHT22;65111;50.536;19.204;2023-02-18T05:11:50;3.90;77.70
76305;DHT22;65111;50.536;19.204;2023-02-18T05:14:16;4.00;77.00
76305;DHT22;65111;50.536;19.204;2023-02-18T05:16:42;4.20;76.90
76305;DHT22;65111;50.536;19.204;2023-02-18T05:19:13;4.00;76.70
76305;DHT22;65111;50.536;19.204;2023-02-18T05:21:39;4.00;76.80
76305;DHT22;65111;50.536;19.204;2023-02-18T05:24:05;4.00;76.70
76305;DHT22;65111;50.536;19.204;2023-02-18T05:26:31;3.90;76.50
76305;DHT22;65111;50.536;19.204;2023-02-18T05:28:57;3.90;75.90
76305;DHT22;65111;50.536;19.204;2023-02-18T05:31:23;3.90;75.90
76305;DHT22;65111;50.536;19.204;2023-02-18T05:33:49;3.60;76.00
76305;DHT22;65111;50.536;19.204;2023-02-18T05:36:15;3.90;75.60
76305;DHT22;65111;50.536;19.204;2023-02-18T05:38:41;3.80;75.00
76305;DHT22;65111;50.536;19.204;2023-02-18T05:41:08;3.80;74.60
76305;DHT22;65111;50.536;19.204;2023-02-18T05:43:33;3.80;74.20
76305;DHT22;65111;50.536;19.204;2023-02-18T05:46:23;4.10;73.80
76305;DHT22;65111;50.536;19.204;2023-02-18T05:48:49;4.40;73.60
76305;DHT22;65111;50.536;19.204;2023-02-18T05:51:15;4.20;73.50
76305;DHT22;65111;50.536;19.204;2023-02-18T05:53:41;4.20;73.30
76305;DHT22;65111;50.536;19.204;2023-02-18T05:56:07;4.30;71.90
76305;DHT22;65111;50.536;19.204;2023-02-18T05:58:33;4.30;71.80
76305;DHT22;65111;50.536;19.204;2023-02-18T06:00:59;4.40;71.50
76305;DHT22;65111;50.536;19.204;2023-02-18T06:03:25;4.50;71.40
76305;DHT22;65111;50.536;19.204;2023-02-18T06:05:52;4.70;71.00
76305;DHT22;65111;50.536;19.204;2023-02-18T06:08:18;4.70;70.40
76305;DHT22;65111;50.536;19.204;2023-02-18T06:10:47;4.70;70.50
76305;DHT22;65111;50.536;19.204;2023-02-18T06:13:13;4.90;70.20
76305;DHT22;65111;50.536;19.204;2023-02-18T06:15:39;4.90;69.70
76305;DHT22;65111;50.536;19.204;2023-02-18T06:18:05;5.20;69.20
76305;DHT22;65111;50.536;19.204;2023-02-18T06:20:32;5.20;68.80
76305;DHT22;65111;50.536;19.204;2023-02-18T06:22:58;5.20;68.40
76305;DHT22;65111;50.536;19.204;2023-02-18T06:25:24;5.50;67.70
76305;DHT22;65111;50.536;19.204;2023-02-18T06:27:50;5.70;67.10
76305;DHT22;65111;50.536;19.204;2023-02-18T06:30:16;5.90;66.40
76305;DHT22;65111;50.536;19.204;2023-02-18T06:32:42;5.90;66.40
76305;DHT22;65111;50.536;19.204;2023-02-18T06:35:09;5.90;66.10
76305;DHT22;65111;50.536;19.204;2023-02-18T06:37:35;5.80;65.70
76305;DHT22;65111;50.536;19.204;2023-02-18T06:40:00;6.00;65.70
76305;DHT22;65111;50.536;19.204;2023-02-18T06:42:26;5.90;66.00
76305;DHT22;65111;50.536;19.204;2023-02-18T06:44:53;6.20;65.50
76305;DHT22;65111;50.536;19.204;2023-02-18T06:47:19;6.10;64.60
76305;DHT22;65111;50.536;19.204;2023-02-18T06:49:45;6.50;65.00
76305;DHT22;65111;50.536;19.204;2023-02-18T06:52:10;6.80;65.20
76305;DHT22;65111;50.536;19.204;2023-02-18T06:54:36;7.30;65.20
76305;DHT22;65111;50.536;19.204;2023-02-18T06:57:02;8.30;64.00
76305;DHT22;65111;50.536;19.204;2023-02-18T06:59:29;9.80;61.20
76305;DHT22;65111;50.536;19.204;2023-02-18T07:01:54;11.40;57.20
76305;DHT22;65111;50.536;19.204;2023-02-18T07:04:20;12.90;53.80
76305;DHT22;65111;50.536;19.204;2023-02-18T07:06:46;13.20;52.20
76305;DHT22;65111;50.536;19.204;2023-02-18T07:09:12;13.00;50.90
76305;DHT22;65111;50.536;19.204;2023-02-18T07:11:38;12.40;51.40
76305;DHT22;65111;50.536;19.204;2023-02-18T07:14:04;11.50;52.50
76305;DHT22;65111;50.536;19.204;2023-02-18T07:16:30;10.70;53.50
76305;DHT22;65111;50.536;19.204;2023-02-18T07:18:56;10.10;53.90
76305;DHT22;65111;50.536;19.204;2023-02-18T07:21:22;9.70;54.90
76305;DHT22;65111;50.536;19.204;2023-02-18T07:23:48;9.20;55.40
76305;DHT22;65111;50.536;19.204;2023-02-18T07:26:14;9.00;56.00
76305;DHT22;65111;50.536;19.204;2023-02-18T07:28:40;8.70;56.50
76305;DHT22;65111;50.536;19.204;2023-02-18T07:31:07;8.60;56.60
76305;DHT22;65111;50.536;19.204;2023-02-18T07:33:33;8.30;56.90
76305;DHT22;65111;50.536;19.204;2023-02-18T07:36:00;8.10;56.90
76305;DHT22;65111;50.536;19.204;2023-02-18T07:38:28;7.90;57.30
76305;DHT22;65111;50.536;19.204;2023-02-18T07:40:54;7.80;57.60
76305;DHT22;65111;50.536;19.204;2023-02-18T07:43:21;7.90;57.60
76305;DHT22;65111;50.536;19.204;2023-02-18T07:45:47;7.80;57.80
76305;DHT22;65111;50.536;19.204;2023-02-18T07:48:13;8.00;57.40
76305;DHT22;65111;50.536;19.204;2023-02-18T07:50:40;8.00;57.30
76305;DHT22;65111;50.536;19.204;2023-02-18T07:53:07;7.90;57.50
76305;DHT22;65111;50.536;19.204;2023-02-18T07:55:33;7.90;57.30
76305;DHT22;65111;50.536;19.204;2023-02-18T07:58:24;7.90;56.60
76305;DHT22;65111;50.536;19.204;2023-02-18T08:00:52;8.00;56.40
76305;DHT22;65111;50.536;19.204;2023-02-18T08:03:20;8.10;56.70
76305;DHT22;65111;50.536;19.204;2023-02-18T08:05:48;8.30;56.90
76305;DHT22;65111;50.536;19.204;2023-02-18T08:08:16;8.40;56.20
76305;DHT22;65111;50.536;19.204;2023-02-18T08:10:45;8.50;56.30
76305;DHT22;65111;50.536;19.204;2023-02-18T08:13:11;8.40;56.00
76305;DHT22;65111;50.536;19.204;2023-02-18T08:15:38;8.50;55.40
76305;DHT22;65111;50.536;19.204;2023-02-18T08:18:06;8.50;55.30
76305;DHT22;65111;50.536;19.204;2023-02-18T08:20:36;8.40;55.40
76305;DHT22;65111;50.536;19.204;2023-02-18T08:23:03;8.40;55.80
76305;DHT22;65111;50.536;19.204;2023-02-18T08:25:30;8.50;55.70
76305;DHT22;65111;50.536;19.204;2023-02-18T08:27:56;8.30;55.50
76305;DHT22;65111;50.536;19.204;2023-02-18T08:30:22;8.40;56.10
76305;DHT22;65111;50.536;19.204;2023-02-18T08:32:48;8.50;55.60
76305;DHT22;65111;50.536;19.204;2023-02-18T08:35:14;8.60;55.20
76305;DHT22;65111;50.536;19.204;2023-02-18T08:37:40;8.60;54.90
76305;DHT22;65111;50.536;19.204;2023-02-18T08:40:09;8.80;54.70
76305;DHT22;65111;50.536;19.204;2023-02-18T08:42:35;8.80;54.50
76305;DHT22;65111;50.536;19.204;2023-02-18T08:45:01;8.80;54.70
76305;DHT22;65111;50.536;19.204;2023-02-18T08:47:27;9.00;54.60
76305;DHT22;65111;50.536;19.204;2023-02-18T08:49:53;9.00;54.70
76305;DHT22;65111;50.536;19.204;2023-02-18T08:52:19;9.10;54.00
76305;DHT22;65111;50.536;19.204;2023-02-18T08:54:45;9.20;54.00
76305;DHT22;65111;50.536;19.204;2023-02-18T08:57:11;9.20;53.90
76305;DHT22;65111;50.536;19.204;2023-02-18T08:59:37;9.10;53.90
76305;DHT22;65111;50.536;19.204;2023-02-18T09:02:03;9.10;53.60
76305;DHT22;65111;50.536;19.204;2023-02-18T09:04:30;9.10;53.80
76305;DHT22;65111;50.536;19.204;2023-02-18T09:06:56;9.00;53.70
76305;DHT22;65111;50.536;19.204;2023-02-18T09:09:22;9.00;53.70
76305;DHT22;65111;50.536;19.204;2023-02-18T09:11:48;8.80;53.90
76305;DHT22;65111;50.536;19.204;2023-02-18T09:14:15;8.90;53.30
76305;DHT22;65111;50.536;19.204;2023-02-18T09:16:41;8.80;53.60
76305;DHT22;65111;50.536;19.204;2023-02-18T09:19:08;8.80;54.20
76305;DHT22;65111;50.536;19.204;2023-02-18T09:21:34;8.80;53.90
76305;DHT22;65111;50.536;19.204;2023-02-18T09:24:00;8.70;53.60
76305;DHT22;65111;50.536;19.204;2023-02-18T09:26:26;8.70;53.70
76305;DHT22;65111;50.536;19.204;2023-02-18T09:28:53;8.60;53.90
76305;DHT22;65111;50.536;19.204;2023-02-18T09:31:22;8.60;54.00
76305;DHT22;65111;50.536;19.204;2023-02-18T09:33:52;8.60;54.20
76305;DHT22;65111;50.536;19.204;2023-02-18T09:36:19;8.50;54.10
76305;DHT22;65111;50.536;19.204;2023-02-18T09:38:46;8.60;54.30
76305;DHT22;65111;50.536;19.204;2023-02-18T09:41:40;8.60;55.00
76305;DHT22;65111;50.536;19.204;2023-02-18T09:44:26;8.60;54.80
76305;DHT22;65111;50.536;19.204;2023-02-18T09:49:34;9.00;54.50
76305;DHT22;65111;50.536;19.204;2023-02-18T09:52:21;9.20;54.40
76305;DHT22;65111;50.536;19.204;2023-02-18T09:54:49;9.40;54.40
76305;DHT22;65111;50.536;19.204;2023-02-18T09:57:40;9.50;53.90
76305;DHT22;65111;50.536;19.204;2023-02-18T10:00:35;9.60;53.10
76305;DHT22;65111;50.536;19.204;2023-02-18T10:06:15;9.50;54.50
76305;DHT22;65111;50.536;19.204;2023-02-18T10:08:45;9.60;54.40
76305;DHT22;65111;50.536;19.204;2023-02-18T10:11:16;9.50;54.20
76305;DHT22;65111;50.536;19.204;2023-02-18T10:13:43;9.50;54.10
76305;DHT22;65111;50.536;19.204;2023-02-18T10:16:15;9.30;54.40
76305;DHT22;65111;50.536;19.204;2023-02-18T10:18:44;9.20;54.40
76305;DHT22;65111;50.536;19.204;2023-02-18T10:21:15;9.10;55.20
76305;DHT22;65111;50.536;19.204;2023-02-18T10:23:58;9.10;55.50
76305;DHT22;65111;50.536;19.204;2023-02-18T10:26:26;9.20;55.40
76305;DHT22;65111;50.536;19.204;2023-02-18T10:28:54;9.30;55.30
76305;DHT22;65111;50.536;19.204;2023-02-18T10:31:39;9.20;55.00
76305;DHT22;65111;50.536;19.204;2023-02-18T10:36:56;9.30;54.90
76305;DHT22;65111;50.536;19.204;2023-02-18T10:39:33;9.40;55.30
76305;DHT22;65111;50.536;19.204;2023-02-18T10:44:59;9.70;55.20
76305;DHT22;65111;50.536;19.204;2023-02-18T10:52:44;9.70;55.60
76305;DHT22;65111;50.536;19.204;2023-02-18T10:55:15;9.60;56.30
76305;DHT22;65111;50.536;19.204;2023-02-18T10:57:49;9.50;56.80
76305;DHT22;65111;50.536;19.204;2023-02-18T11:00:19;9.40;58.10
76305;DHT22;65111;50.536;19.204;2023-02-18T11:03:18;9.20;60.30
76305;DHT22;65111;50.536;19.204;2023-02-18T11:05:45;9.00;62.60
76305;DHT22;65111;50.536;19.204;2023-02-18T11:08:19;8.80;64.90
76305;DHT22;65111;50.536;19.204;2023-02-18T11:10:47;8.60;66.80
76305;DHT22;65111;50.536;19.204;2023-02-18T11:13:29;8.50;68.00
76305;DHT22;65111;50.536;19.204;2023-02-18T11:16:01;8.40;69.20
76305;DHT22;65111;50.536;19.204;2023-02-18T11:18:43;8.40;69.80
76305;DHT22;65111;50.536;19.204;2023-02-18T11:21:29;8.40;70.20
76305;DHT22;65111;50.536;19.204;2023-02-18T11:23:56;8.40;70.70
76305;DHT22;65111;50.536;19.204;2023-02-18T11:26:30;8.30;71.20
76305;DHT22;65111;50.536;19.204;2023-02-18T11:29:01;8.30;71.70
76305;DHT22;65111;50.536;19.204;2023-02-18T11:31:48;8.10;72.60
76305;DHT22;65111;50.536;19.204;2023-02-18T11:34:18;8.00;73.90
76305;DHT22;65111;50.536;19.204;2023-02-18T11:36:46;7.80;74.50
76305;DHT22;65111;50.536;19.204;2023-02-18T11:41:52;7.70;75.70
76305;DHT22;65111;50.536;19.204;2023-02-18T11:47:05;7.60;76.50
76305;DHT22;65111;50.536;19.204;2023-02-18T11:49:33;7.40;77.20
76305;DHT22;65111;50.536;19.204;2023-02-18T11:55:25;7.60;77.90
76305;DHT22;65111;50.536;19.204;2023-02-18T11:58:00;7.90;77.90
76305;DHT22;65111;50.536;19.204;2023-02-18T12:00:44;8.10;77.60
76305;DHT22;65111;50.536;19.204;2023-02-18T12:05:47;8.30;76.50
76305;DHT22;65111;50.536;19.204;2023-02-18T12:08:19;8.60;76.50
76305;DHT22;65111;50.536;19.204;2023-02-18T12:10:53;8.90;76.60
76305;DHT22;65111;50.536;19.204;2023-02-18T12:16:19;9.80;74.10
76305;DHT22;65111;50.536;19.204;2023-02-18T12:18:58;10.20;72.80
76305;DHT22;65111;50.536;19.204;2023-02-18T12:24:49;10.20;72.00
76305;DHT22;65111;50.536;19.204;2023-02-18T12:27:27;10.10;72.60
76305;DHT22;65111;50.536;19.204;2023-02-18T12:35:44;10.10;72.30
76305;DHT22;65111;50.536;19.204;2023-02-18T12:38:34;9.90;72.60
76305;DHT22;65111;50.536;19.204;2023-02-18T12:56:27;8.70;76.60
76305;DHT22;65111;50.536;19.204;2023-02-18T13:02:03;8.40;77.70
76305;DHT22;65111;50.536;19.204;2023-02-18T13:15:42;7.50;80.80
76305;DHT22;65111;50.536;19.204;2023-02-18T13:18:17;7.40;81.30
76305;DHT22;65111;50.536;19.204;2023-02-18T13:21:08;7.30;81.50
76305;DHT22;65111;50.536;19.204;2023-02-18T13:24:03;7.30;81.70
76305;DHT22;65111;50.536;19.204;2023-02-18T13:26:32;7.30;81.80
76305;DHT22;65111;50.536;19.204;2023-02-18T13:29:17;7.10;81.90
76305;DHT22;65111;50.536;19.204;2023-02-18T13:34:49;7.30;82.00
76305;DHT22;65111;50.536;19.204;2023-02-18T13:40:25;7.30;82.60
76305;DHT22;65111;50.536;19.204;2023-02-18T13:43:18;7.20;82.50
76305;DHT22;65111;50.536;19.204;2023-02-18T13:48:34;7.20;82.90
76305;DHT22;65111;50.536;19.204;2023-02-18T13:51:02;7.20;83.10
76305;DHT22;65111;50.536;19.204;2023-02-18T13:53:36;7.20;83.20
76305;DHT22;65111;50.536;19.204;2023-02-18T13:56:08;7.20;83.30
76305;DHT22;65111;50.536;19.204;2023-02-18T13:58:39;7.20;83.40
76305;DHT22;65111;50.536;19.204;2023-02-18T14:11:46;6.60;85.10
76305;DHT22;65111;50.536;19.204;2023-02-18T14:14:36;6.60;85.60
76305;DHT22;65111;50.536;19.204;2023-02-18T14:17:28;6.40;85.80
76305;DHT22;65111;50.536;19.204;2023-02-18T14:22:42;6.30;86.50
76305;DHT22;65111;50.536;19.204;2023-02-18T14:31:01;6.30;88.00
76305;DHT22;65111;50.536;19.204;2023-02-18T14:33:31;6.40;88.10
76305;DHT22;65111;50.536;19.204;2023-02-18T14:50:14;6.10;89.70
76305;DHT22;65111;50.536;19.204;2023-02-18T14:52:44;6.00;90.00
76305;DHT22;65111;50.536;19.204;2023-02-18T14:55:34;5.80;90.30
76305;DHT22;65111;50.536;19.204;2023-02-18T14:58:04;5.80;90.60
76305;DHT22;65111;50.536;19.204;2023-02-18T15:00:41;6.00;90.80
76305;DHT22;65111;50.536;19.204;2023-02-18T15:03:14;5.90;91.20
76305;DHT22;65111;50.536;19.204;2023-02-18T15:05:43;5.90;91.30
76305;DHT22;65111;50.536;19.204;2023-02-18T15:08:35;5.90;91.50
76305;DHT22;65111;50.536;19.204;2023-02-18T15:11:05;5.80;91.80
76305;DHT22;65111;50.536;19.204;2023-02-18T15:13:34;5.90;91.80
76305;DHT22;65111;50.536;19.204;2023-02-18T15:16:12;5.70;91.90
76305;DHT22;65111;50.536;19.204;2023-02-18T15:18:41;5.80;92.20
76305;DHT22;65111;50.536;19.204;2023-02-18T15:21:26;5.90;92.10
76305;DHT22;65111;50.536;19.204;2023-02-18T15:23:53;5.90;92.40
76305;DHT22;65111;50.536;19.204;2023-02-18T15:26:20;5.80;92.80
76305;DHT22;65111;50.536;19.204;2023-02-18T15:29:00;5.90;93.20
76305;DHT22;65111;50.536;19.204;2023-02-18T15:31:28;5.90;93.10
76305;DHT22;65111;50.536;19.204;2023-02-18T15:33:55;5.80;93.10
76305;DHT22;65111;50.536;19.204;2023-02-18T15:36:20;5.90;93.00
76305;DHT22;65111;50.536;19.204;2023-02-18T15:38:47;6.00;93.10
76305;DHT22;65111;50.536;19.204;2023-02-18T15:41:15;5.90;93.50
76305;DHT22;65111;50.536;19.204;2023-02-18T15:44:02;6.10;93.80
76305;DHT22;65111;50.536;19.204;2023-02-18T15:46:29;6.10;94.20
76305;DHT22;65111;50.536;19.204;2023-02-18T15:48:56;6.20;94.60
76305;DHT22;65111;50.536;19.204;2023-02-18T15:51:30;6.10;94.90
76305;DHT22;65111;50.536;19.204;2023-02-18T15:53:59;6.10;95.20
76305;DHT22;65111;50.536;19.204;2023-02-18T15:56:36;6.20;95.30
76305;DHT22;65111;50.536;19.204;2023-02-18T15:59:23;6.30;95.20
76305;DHT22;65111;50.536;19.204;2023-02-18T16:04:40;6.50;95.10
76305;DHT22;65111;50.536;19.204;2023-02-18T16:10:24;6.50;95.30
76305;DHT22;65111;50.536;19.204;2023-02-18T16:12:56;6.50;95.20
76305;DHT22;65111;50.536;19.204;2023-02-18T16:15:28;6.50;95.30
76305;DHT22;65111;50.536;19.204;2023-02-18T16:17:55;6.60;95.60
76305;DHT22;65111;50.536;19.204;2023-02-18T16:20:25;6.70;95.90
76305;DHT22;65111;50.536;19.204;2023-02-18T16:23:00;6.70;96.30
76305;DHT22;65111;50.536;19.204;2023-02-18T16:25:47;6.80;96.40
76305;DHT22;65111;50.536;19.204;2023-02-18T16:28:16;6.80;96.50
76305;DHT22;65111;50.536;19.204;2023-02-18T16:30:47;7.00;96.40
76305;DHT22;65111;50.536;19.204;2023-02-18T16:33:13;7.00;96.20
76305;DHT22;65111;50.536;19.204;2023-02-18T16:35:41;7.00;96.10
76305;DHT22;65111;50.536;19.204;2023-02-18T16:38:14;6.90;96.20
76305;DHT22;65111;50.536;19.204;2023-02-18T16:40:41;7.10;96.40
76305;DHT22;65111;50.536;19.204;2023-02-18T16:43:13;7.10;96.60
76305;DHT22;65111;50.536;19.204;2023-02-18T16:45:45;7.30;96.60
76305;DHT22;65111;50.536;19.204;2023-02-18T16:53:50;7.50;96.50
76305;DHT22;65111;50.536;19.204;2023-02-18T16:56:20;7.70;96.70
76305;DHT22;65111;50.536;19.204;2023-02-18T16:58:47;7.70;96.80
76305;DHT22;65111;50.536;19.204;2023-02-18T17:01:26;7.70;96.70
76305;DHT22;65111;50.536;19.204;2023-02-18T17:03:54;7.70;96.90
76305;DHT22;65111;50.536;19.204;2023-02-18T17:06:20;7.80;97.00
76305;DHT22;65111;50.536;19.204;2023-02-18T17:08:47;7.80;97.00
76305;DHT22;65111;50.536;19.204;2023-02-18T17:13:43;7.90;96.80
76305;DHT22;65111;50.536;19.204;2023-02-18T17:16:09;7.90;96.80
76305;DHT22;65111;50.536;19.204;2023-02-18T17:18:35;8.00;96.70
76305;DHT22;65111;50.536;19.204;2023-02-18T17:21:01;8.00;96.70
76305;DHT22;65111;50.536;19.204;2023-02-18T17:23:28;8.00;97.00
76305;DHT22;65111;50.536;19.204;2023-02-18T17:25:54;8.10;96.90
76305;DHT22;65111;50.536;19.204;2023-02-18T17:28:20;8.00;96.70
76305;DHT22;65111;50.536;19.204;2023-02-18T17:30:52;8.10;96.90
76305;DHT22;65111;50.536;19.204;2023-02-18T17:33:21;8.20;96.70
76305;DHT22;65111;50.536;19.204;2023-02-18T17:35:50;8.30;96.50
76305;DHT22;65111;50.536;19.204;2023-02-18T17:38:17;8.20;96.70
76305;DHT22;65111;50.536;19.204;2023-02-18T17:40:44;8.20;96.60
76305;DHT22;65111;50.536;19.204;2023-02-18T17:43:15;8.20;96.50
76305;DHT22;65111;50.536;19.204;2023-02-18T17:45:48;8.20;96.40
76305;DHT22;65111;50.536;19.204;2023-02-18T17:48:15;8.30;96.60
76305;DHT22;65111;50.536;19.204;2023-02-18T17:50:41;8.20;96.50
76305;DHT22;65111;50.536;19.204;2023-02-18T17:53:10;8.20;96.50
76305;DHT22;65111;50.536;19.204;2023-02-18T17:55:36;8.20;96.40
76305;DHT22;65111;50.536;19.204;2023-02-18T17:58:03;8.30;96.40
76305;DHT22;65111;50.536;19.204;2023-02-18T18:00:32;8.30;96.30
76305;DHT22;65111;50.536;19.204;2023-02-18T18:02:59;8.20;96.20
76305;DHT22;65111;50.536;19.204;2023-02-18T18:05:37;8.30;96.30
76305;DHT22;65111;50.536;19.204;2023-02-18T18:08:05;8.30;96.40
76305;DHT22;65111;50.536;19.204;2023-02-18T18:10:46;8.30;96.10
76305;DHT22;65111;50.536;19.204;2023-02-18T18:13:33;8.30;96.40
76305;DHT22;65111;50.536;19.204;2023-02-18T18:15:59;8.20;96.10
76305;DHT22;65111;50.536;19.204;2023-02-18T18:18:26;8.20;96.20
76305;DHT22;65111;50.536;19.204;2023-02-18T18:20:57;8.30;96.00
76305;DHT22;65111;50.536;19.204;2023-02-18T18:23:24;8.30;96.00
76305;DHT22;65111;50.536;19.204;2023-02-18T18:25:57;8.30;96.00
76305;DHT22;65111;50.536;19.204;2023-02-18T18:28:23;8.40;96.10
76305;DHT22;65111;50.536;19.204;2023-02-18T18:30:53;8.40;96.10
76305;DHT22;65111;50.536;19.204;2023-02-18T18:33:29;8.30;95.80
76305;DHT22;65111;50.536;19.204;2023-02-18T18:35:56;8.40;95.80
76305;DHT22;65111;50.536;19.204;2023-02-18T18:38:25;8.30;95.80